createdAt,value
2018-06-07T00:00:24.154Z,1009.02
2018-06-07T00:01:24.105Z,1008.99
2018-06-07T00:02:24.126Z,1008.95
2018-06-07T00:03:24.137Z,1008.97
2018-06-07T00:04:24.154Z,1008.93
2018-06-07T00:05:24.175Z,1008.91
2018-06-07T00:06:24.274Z,1008.89
2018-06-07T00:07:24.211Z,1008.83
2018-06-07T00:08:24.221Z,1008.79
2018-06-07T00:09:24.294Z,1008.74
2018-06-07T00:12:24.293Z,1008.69
2018-06-07T00:13:24.303Z,1008.72
2018-06-07T00:15:24.387Z,1008.77
2018-06-07T00:16:24.351Z,1008.75
2018-06-07T00:17:24.375Z,1008.72
2018-06-07T00:18:24.389Z,1008.66
2018-06-07T00:19:24.399Z,1008.66
2018-06-07T00:21:24.445Z,1008.64
2018-06-07T00:22:24.460Z,1008.68
2018-06-07T00:23:24.509Z,1008.72
2018-06-07T00:24:24.485Z,1008.70
2018-06-07T00:25:24.506Z,1008.67
2018-06-07T00:26:24.517Z,1008.67
2018-06-07T00:27:24.592Z,1008.66
2018-06-07T00:28:24.557Z,1008.69
2018-06-07T00:29:24.647Z,1008.65
2018-06-07T00:30:24.590Z,1008.67
2018-06-07T00:31:24.604Z,1008.65
2018-06-07T00:32:24.621Z,1008.62
2018-06-07T00:33:24.685Z,1008.62
2018-06-07T00:34:24.649Z,1008.58
2018-06-07T00:35:24.667Z,1008.61
2018-06-07T00:36:24.687Z,1008.60
2018-06-07T00:37:24.704Z,1008.57
2018-06-07T00:38:24.722Z,1008.56
2018-06-07T00:39:24.784Z,1008.55
2018-06-07T00:40:24.754Z,1008.53
2018-06-07T00:42:24.787Z,1008.52
2018-06-07T00:44:24.816Z,1008.54
2018-06-07T00:45:24.837Z,1008.52
2018-06-07T00:47:24.946Z,1008.50
2018-06-07T00:48:24.883Z,1008.49
2018-06-07T00:50:24.920Z,1008.46
2018-06-07T00:51:24.934Z,1008.45
2018-06-07T00:52:24.952Z,1008.42
2018-06-07T00:54:24.986Z,1008.42
2018-06-07T00:55:25.003Z,1008.42
2018-06-07T00:56:25.067Z,1008.47
2018-06-07T00:57:25.037Z,1008.51
2018-06-07T00:58:25.055Z,1008.53
2018-06-07T00:59:25.073Z,1008.50
2018-06-07T01:00:25.082Z,1008.49
2018-06-07T01:01:25.102Z,1008.50
2018-06-07T01:02:25.172Z,1008.49
2018-06-07T01:03:25.132Z,1008.44
2018-06-07T01:05:25.170Z,1008.43
2018-06-07T01:06:25.188Z,1008.44
2018-06-07T01:07:25.200Z,1008.44
2018-06-07T01:08:25.223Z,1008.42
2018-06-07T01:09:25.240Z,1008.38
2018-06-07T01:10:25.257Z,1008.36
2018-06-07T01:11:25.266Z,1008.32
2018-06-07T01:13:25.303Z,1008.30
2018-06-07T01:14:25.325Z,1008.28
2018-06-07T01:15:25.339Z,1008.31
2018-06-07T01:16:25.385Z,1008.27
2018-06-07T01:17:25.369Z,1008.28
2018-06-07T01:19:25.401Z,1008.28
2018-06-07T01:20:25.472Z,1008.24
2018-06-07T01:21:25.437Z,1008.26
2018-06-07T01:22:25.453Z,1008.29
2018-06-07T01:23:25.465Z,1008.31
2018-06-07T01:25:25.503Z,1008.29
2018-06-07T01:26:25.570Z,1008.28
2018-06-07T01:27:25.540Z,1008.30
2018-06-07T01:28:25.559Z,1008.30
2018-06-07T01:29:25.567Z,1008.32
2018-06-07T01:30:25.587Z,1008.31
2018-06-07T01:31:25.604Z,1008.28
2018-06-07T01:32:25.667Z,1008.31
2018-06-07T01:33:25.637Z,1008.27
2018-06-07T01:35:25.670Z,1008.32
2018-06-07T01:36:25.688Z,1008.29
2018-06-07T01:37:25.702Z,1008.22
2018-06-07T01:38:25.722Z,1008.24
2018-06-07T01:39:25.731Z,1008.26
2018-06-07T01:40:25.755Z,1008.24
2018-06-07T01:41:25.767Z,1008.21
2018-06-07T01:42:25.786Z,1008.24
2018-06-07T01:43:25.805Z,1008.22
2018-06-07T01:44:25.868Z,1008.21
2018-06-07T01:45:25.836Z,1008.22
2018-06-07T01:46:25.849Z,1008.22
2018-06-07T01:47:25.865Z,1008.21
2018-06-07T01:48:25.889Z,1008.17
2018-06-07T01:50:25.920Z,1008.19
2018-06-07T01:51:25.939Z,1008.14
2018-06-07T01:52:25.955Z,1008.15
2018-06-07T01:53:25.968Z,1008.14
2018-06-07T01:55:26.057Z,1008.15
2018-06-07T01:56:26.021Z,1008.12
2018-06-07T01:58:26.055Z,1008.13
2018-06-07T01:59:26.072Z,1008.09
2018-06-07T02:01:26.108Z,1008.02
2018-06-07T02:02:26.121Z,1008.00
2018-06-07T02:03:26.133Z,1007.97
2018-06-07T02:04:26.174Z,1007.95
2018-06-07T02:05:26.172Z,1007.95
2018-06-07T02:06:26.189Z,1007.89
2018-06-07T02:07:26.207Z,1007.91
2018-06-07T02:08:26.223Z,1007.90
2018-06-07T02:09:26.234Z,1007.90
2018-06-07T02:10:26.253Z,1007.89
2018-06-07T02:11:26.267Z,1007.85
2018-06-07T02:12:26.292Z,1007.84
2018-06-07T02:13:26.360Z,1007.81
2018-06-07T02:14:26.319Z,1007.82
2018-06-07T02:15:26.339Z,1007.81
2018-06-07T02:16:26.355Z,1007.86
2018-06-07T02:17:26.371Z,1007.85
2018-06-07T02:19:26.410Z,1007.82
2018-06-07T02:20:26.424Z,1007.81
2018-06-07T02:21:26.439Z,1007.82
2018-06-07T02:23:26.487Z,1007.86
2018-06-07T02:25:26.510Z,1007.91
2018-06-07T02:27:26.541Z,1007.92
2018-06-07T02:28:26.560Z,1007.88
2018-06-07T02:29:26.573Z,1007.87
2018-06-07T02:30:26.586Z,1007.86
2018-06-07T02:31:26.658Z,1007.88
2018-06-07T02:32:26.642Z,1007.85
2018-06-07T02:33:26.636Z,1007.85
2018-06-07T02:35:26.677Z,1007.78
2018-06-07T02:36:26.690Z,1007.75
2018-06-07T02:37:26.757Z,1007.78
2018-06-07T02:38:26.726Z,1007.79
2018-06-07T02:39:26.745Z,1007.84
2018-06-07T02:40:26.755Z,1007.83
2018-06-07T02:41:26.838Z,1007.86
2018-06-07T02:43:26.862Z,1007.79
2018-06-07T02:44:26.824Z,1007.77
2018-06-07T02:45:26.841Z,1007.74
2018-06-07T02:46:26.865Z,1007.79
2018-06-07T02:48:26.895Z,1007.81
2018-06-07T02:49:26.909Z,1007.84
2018-06-07T02:50:26.931Z,1007.80
2018-06-07T02:52:26.962Z,1007.75
2018-06-07T02:53:27.001Z,1007.77
2018-06-07T02:54:26.999Z,1007.78
2018-06-07T02:55:27.012Z,1007.76
2018-06-07T02:56:27.036Z,1007.71
2018-06-07T02:58:27.059Z,1007.67
2018-06-07T02:59:27.157Z,1007.63
2018-06-07T03:00:27.095Z,1007.64
2018-06-07T03:01:31.125Z,1007.71
2018-06-07T03:02:27.135Z,1007.72
2018-06-07T03:03:27.148Z,1007.71
2018-06-07T03:04:27.163Z,1007.74
2018-06-07T03:05:27.226Z,1007.72
2018-06-07T03:06:27.199Z,1007.67
2018-06-07T03:07:27.318Z,1007.62
2018-06-07T03:08:27.232Z,1007.63
2018-06-07T03:10:27.270Z,1007.64
2018-06-07T03:11:27.287Z,1007.67
2018-06-07T03:12:27.303Z,1007.67
2018-06-07T03:13:27.320Z,1007.68
2018-06-07T03:14:27.330Z,1007.66
2018-06-07T03:15:27.353Z,1007.70
2018-06-07T03:16:27.369Z,1007.72
2018-06-07T03:17:27.409Z,1007.68
2018-06-07T03:18:27.406Z,1007.68
2018-06-07T03:19:27.424Z,1007.69
2018-06-07T03:20:27.445Z,1007.67
2018-06-07T03:22:27.468Z,1007.71
2018-06-07T03:23:27.488Z,1007.72
2018-06-07T03:24:27.506Z,1007.72
2018-06-07T03:25:27.528Z,1007.72
2018-06-07T03:26:27.534Z,1007.73
2018-06-07T03:27:27.555Z,1007.74
2018-06-07T03:28:27.573Z,1007.75
2018-06-07T03:29:27.592Z,1007.77
2018-06-07T03:30:27.609Z,1007.72
2018-06-07T03:31:27.629Z,1007.74
2018-06-07T03:34:27.677Z,1007.70
2018-06-07T03:35:27.691Z,1007.72
2018-06-07T03:36:27.706Z,1007.74
2018-06-07T03:37:27.721Z,1007.74
2018-06-07T03:38:27.739Z,1007.74
2018-06-07T03:39:27.756Z,1007.78
2018-06-07T03:40:27.777Z,1007.76
2018-06-07T03:41:27.788Z,1007.80
2018-06-07T03:42:27.808Z,1007.76
2018-06-07T03:43:27.826Z,1007.78
2018-06-07T03:44:27.848Z,1007.75
2018-06-07T03:45:27.855Z,1007.77
2018-06-07T03:46:27.881Z,1007.74
2018-06-07T03:47:27.897Z,1007.75
2018-06-07T03:48:27.914Z,1007.75
2018-06-07T03:49:27.937Z,1007.76
2018-06-07T03:50:27.943Z,1007.77
2018-06-07T03:52:27.975Z,1007.74
2018-06-07T03:53:28.001Z,1007.75
2018-06-07T03:54:28.007Z,1007.82
2018-06-07T03:55:28.030Z,1007.82
2018-06-07T03:56:28.049Z,1007.84
2018-06-07T03:59:28.093Z,1007.78
2018-06-07T04:00:28.111Z,1007.77
2018-06-07T04:01:28.131Z,1007.80
2018-06-07T04:02:28.226Z,1007.80
2018-06-07T04:04:28.183Z,1007.79
2018-06-07T04:05:28.195Z,1007.78
2018-06-07T04:06:28.212Z,1007.79
2018-06-07T04:07:28.235Z,1007.82
2018-06-07T04:08:28.247Z,1007.80
2018-06-07T04:09:28.259Z,1007.80
2018-06-07T04:10:28.285Z,1007.77
2018-06-07T04:11:28.299Z,1007.77
2018-06-07T04:12:28.309Z,1007.80
2018-06-07T04:13:28.334Z,1007.79
2018-06-07T04:14:28.349Z,1007.79
2018-06-07T04:15:28.365Z,1007.76
2018-06-07T04:16:28.381Z,1007.78
2018-06-07T04:18:28.411Z,1007.74
2018-06-07T04:19:28.433Z,1007.76
2018-06-07T04:20:28.449Z,1007.76
2018-06-07T04:22:28.485Z,1007.78
2018-06-07T04:23:28.501Z,1007.81
2018-06-07T04:24:28.514Z,1007.81
2018-06-07T04:25:28.531Z,1007.79
2018-06-07T04:26:28.547Z,1007.78
2018-06-07T04:27:28.564Z,1007.78
2018-06-07T04:28:28.628Z,1007.79
2018-06-07T04:29:28.624Z,1007.75
2018-06-07T04:30:28.613Z,1007.77
2018-06-07T04:31:28.640Z,1007.77
2018-06-07T04:32:28.657Z,1007.78
2018-06-07T04:33:28.664Z,1007.75
2018-06-07T04:34:28.677Z,1007.75
2018-06-07T04:35:28.700Z,1007.74
2018-06-07T04:36:28.719Z,1007.75
2018-06-07T04:37:28.735Z,1007.74
2018-06-07T04:38:28.746Z,1007.72
2018-06-07T04:39:28.822Z,1007.72
2018-06-07T04:40:28.785Z,1007.72
2018-06-07T04:41:28.803Z,1007.72
2018-06-07T04:42:28.815Z,1007.71
2018-06-07T04:43:28.832Z,1007.76
2018-06-07T04:44:28.850Z,1007.79
2018-06-07T04:45:28.874Z,1007.75
2018-06-07T04:46:28.886Z,1007.76
2018-06-07T04:47:28.900Z,1007.76
2018-06-07T04:48:28.915Z,1007.75
2018-06-07T04:49:28.936Z,1007.76
2018-06-07T04:50:28.951Z,1007.80
2018-06-07T04:51:28.962Z,1007.79
2018-06-07T04:52:28.980Z,1007.79
2018-06-07T04:53:29.003Z,1007.77
2018-06-07T04:54:29.020Z,1007.78
2018-06-07T04:55:29.036Z,1007.78
2018-06-07T04:56:29.053Z,1007.79
2018-06-07T04:57:29.067Z,1007.78
2018-06-07T04:58:29.078Z,1007.76
2018-06-07T05:00:29.120Z,1007.78
2018-06-07T05:01:29.135Z,1007.80
2018-06-07T05:02:29.152Z,1007.79
2018-06-07T05:03:29.208Z,1007.81
2018-06-07T05:04:29.180Z,1007.79
2018-06-07T05:05:29.198Z,1007.82
2018-06-07T05:06:29.213Z,1007.78
2018-06-07T05:07:29.229Z,1007.79
2018-06-07T05:08:29.252Z,1007.83
2018-06-07T05:09:29.357Z,1007.83
2018-06-07T05:10:29.286Z,1007.83
2018-06-07T05:11:29.304Z,1007.83
2018-06-07T05:12:29.320Z,1007.88
2018-06-07T05:13:29.341Z,1007.85
2018-06-07T05:14:29.349Z,1007.89
2018-06-07T05:15:29.423Z,1007.91
2018-06-07T05:16:29.387Z,1007.89
2018-06-07T05:17:29.404Z,1007.91
2018-06-07T05:18:29.422Z,1007.92
2018-06-07T05:19:29.432Z,1007.89
2018-06-07T05:20:29.448Z,1007.91
2018-06-07T05:21:29.492Z,1007.89
2018-06-07T05:22:29.482Z,1007.86
2018-06-07T05:23:29.497Z,1007.89
2018-06-07T05:24:29.517Z,1007.86
2018-06-07T05:25:29.532Z,1007.91
2018-06-07T05:26:29.546Z,1007.86
2018-06-07T05:27:29.646Z,1007.90
2018-06-07T05:28:29.586Z,1007.89
2018-06-07T05:29:29.596Z,1007.94
2018-06-07T05:30:29.623Z,1007.95
2018-06-07T05:31:29.646Z,1007.91
2018-06-07T05:32:29.650Z,1007.93
2018-06-07T05:33:29.750Z,1007.91
2018-06-07T05:34:29.683Z,1007.88
2018-06-07T05:35:29.697Z,1007.92
2018-06-07T05:36:29.718Z,1007.93
2018-06-07T05:37:29.738Z,1007.95
2018-06-07T05:38:29.747Z,1007.92
2018-06-07T05:39:29.792Z,1007.92
2018-06-07T05:40:29.786Z,1007.91
2018-06-07T05:41:29.801Z,1007.90
2018-06-07T05:42:29.821Z,1007.94
2018-06-07T05:43:29.834Z,1007.91
2018-06-07T05:44:29.872Z,1007.98
2018-06-07T05:45:29.879Z,1007.96
2018-06-07T05:46:29.941Z,1007.95
2018-06-07T05:47:29.902Z,1007.93
2018-06-07T05:48:29.921Z,1007.93
2018-06-07T05:49:29.936Z,1007.93
2018-06-07T05:50:29.984Z,1007.94
2018-06-07T05:51:30.008Z,1007.96
2018-06-07T05:52:29.989Z,1007.98
2018-06-07T05:53:30.000Z,1008.00
2018-06-07T05:54:30.045Z,1008.01
2018-06-07T05:55:30.041Z,1008.04
2018-06-07T05:56:30.056Z,1008.03
2018-06-07T05:57:30.100Z,1008.06
2018-06-07T05:58:30.086Z,1008.07
2018-06-07T05:59:30.106Z,1008.05
2018-06-07T06:00:30.131Z,1008.05
2018-06-07T06:01:30.143Z,1008.05
2018-06-07T06:02:30.158Z,1008.06
2018-06-07T06:03:30.167Z,1008.12
2018-06-07T06:04:30.195Z,1008.12
2018-06-07T06:05:30.316Z,1008.10
2018-06-07T06:06:30.218Z,1008.07
2018-06-07T06:07:30.289Z,1008.07
2018-06-07T06:08:30.258Z,1008.09
2018-06-07T06:09:30.326Z,1008.03
2018-06-07T06:10:30.285Z,1008.06
2018-06-07T06:11:30.309Z,1008.05
2018-06-07T06:12:30.323Z,1008.07
2018-06-07T06:13:30.342Z,1008.06
2018-06-07T06:14:30.361Z,1008.04
2018-06-07T06:15:30.375Z,1008.07
2018-06-07T06:16:30.431Z,1008.07
2018-06-07T06:17:30.403Z,1008.06
2018-06-07T06:18:30.421Z,1008.07
2018-06-07T06:19:30.443Z,1008.05
2018-06-07T06:20:30.460Z,1008.05
2018-06-07T06:21:30.523Z,1008.08
2018-06-07T06:22:30.494Z,1008.08
2018-06-07T06:23:30.506Z,1008.08
2018-06-07T06:24:30.530Z,1008.07
2018-06-07T06:25:30.540Z,1008.08
2018-06-07T06:26:30.560Z,1008.09
2018-06-07T06:27:30.578Z,1008.08
2018-06-07T06:28:30.673Z,1008.08
2018-06-07T06:29:30.610Z,1008.10
2018-06-07T06:30:30.625Z,1008.09
2018-06-07T06:31:30.650Z,1008.10
2018-06-07T06:32:30.664Z,1008.09
2018-06-07T06:33:30.673Z,1008.06
2018-06-07T06:34:30.696Z,1008.10
2018-06-07T06:35:30.723Z,1008.05
2018-06-07T06:36:30.728Z,1008.05
2018-06-07T06:37:30.748Z,1008.02
2018-06-07T06:38:30.756Z,1008.01
2018-06-07T06:39:30.787Z,1007.99
2018-06-07T06:40:30.820Z,1007.98
2018-06-07T06:41:30.807Z,1007.97
2018-06-07T06:42:30.829Z,1008.00
2018-06-07T06:43:30.846Z,1008.01
2018-06-07T06:44:30.865Z,1007.98
2018-06-07T06:45:30.877Z,1007.95
2018-06-07T06:46:30.937Z,1007.96
2018-06-07T06:47:30.908Z,1007.93
2018-06-07T06:48:30.935Z,1007.97
2018-06-07T06:49:31.027Z,1007.97
2018-06-07T06:50:30.971Z,1007.95
2018-06-07T06:51:30.986Z,1007.96
2018-06-07T06:52:30.995Z,1007.96
2018-06-07T06:53:31.019Z,1007.97
2018-06-07T06:54:31.031Z,1007.94
2018-06-07T06:55:31.049Z,1007.92
2018-06-07T06:56:31.066Z,1007.93
2018-06-07T06:57:31.086Z,1007.99
2018-06-07T06:58:31.104Z,1008.00
2018-06-07T06:59:31.121Z,1007.93
2018-06-07T07:00:31.135Z,1007.95
2018-06-07T07:01:31.152Z,1007.92
2018-06-07T07:02:31.172Z,1007.91
2018-06-07T07:03:31.185Z,1007.93
2018-06-07T07:04:31.206Z,1007.95
2018-06-07T07:05:31.219Z,1007.95
2018-06-07T07:06:31.240Z,1007.93
2018-06-07T07:07:31.253Z,1007.98
2018-06-07T07:08:31.270Z,1008.01
2018-06-07T07:09:31.288Z,1008.01
2018-06-07T07:10:31.338Z,1008.01
2018-06-07T07:11:31.324Z,1008.02
2018-06-07T07:12:31.338Z,1007.99
2018-06-07T07:13:31.358Z,1007.97
2018-06-07T07:14:31.370Z,1008.02
2018-06-07T07:15:31.394Z,1008.02
2018-06-07T07:16:31.501Z,1008.02
2018-06-07T07:17:31.420Z,1008.07
2018-06-07T07:24:26.631Z,1008.17
2018-06-07T07:25:26.642Z,1008.16
2018-06-07T07:26:26.654Z,1008.13
2018-06-07T07:27:26.671Z,1008.14
2018-06-07T07:28:26.690Z,1008.19
2018-06-07T07:29:26.703Z,1008.13
2018-06-07T07:30:26.720Z,1008.16
2018-06-07T07:31:26.729Z,1008.17
2018-06-07T07:32:26.747Z,1008.16
2018-06-07T07:33:26.759Z,1008.23
2018-06-07T07:34:26.781Z,1008.18
2018-06-07T07:35:26.791Z,1008.25
2018-06-07T07:36:26.810Z,1008.24
2018-06-07T07:37:26.835Z,1008.27
2018-06-07T07:38:26.851Z,1008.32
2018-06-07T07:39:26.859Z,1008.29
2018-06-07T07:40:26.871Z,1008.25
2018-06-07T07:41:26.891Z,1008.28
2018-06-07T07:42:26.974Z,1008.26
2018-06-07T07:43:26.919Z,1008.26
2018-06-07T07:44:26.939Z,1008.24
2018-06-07T07:45:26.976Z,1008.27
2018-06-07T07:46:26.972Z,1008.27
2018-06-07T07:47:26.981Z,1008.30
2018-06-07T07:48:27.054Z,1008.28
2018-06-07T07:49:27.072Z,1008.27
2018-06-07T07:50:27.038Z,1008.32
2018-06-07T07:51:27.049Z,1008.28
2018-06-07T07:52:27.069Z,1008.34
2018-06-07T07:53:27.088Z,1008.40
2018-06-07T07:54:27.100Z,1008.43
2018-06-07T07:55:27.200Z,1008.38
2018-06-07T07:56:27.133Z,1008.38
2018-06-07T07:57:27.153Z,1008.33
2018-06-07T07:58:27.171Z,1008.34
2018-06-07T07:59:27.178Z,1008.33
2018-06-07T08:00:27.204Z,1008.40
2018-06-07T08:01:27.260Z,1008.41
2018-06-07T08:02:27.231Z,1008.39
2018-06-07T08:03:27.244Z,1008.37
2018-06-07T08:04:27.267Z,1008.42
2018-06-07T08:05:27.284Z,1008.37
2018-06-07T08:06:27.353Z,1008.38
2018-06-07T08:07:27.314Z,1008.37
2018-06-07T08:08:27.331Z,1008.31
2018-06-07T08:09:27.351Z,1008.28
2018-06-07T08:10:27.362Z,1008.21
2018-06-07T08:11:27.383Z,1008.22
2018-06-07T08:12:27.399Z,1008.16
2018-06-07T08:13:27.412Z,1008.21
2018-06-07T08:14:27.429Z,1008.16
2018-06-07T08:15:27.444Z,1008.14
2018-06-07T08:16:27.464Z,1008.15
2018-06-07T08:17:27.479Z,1008.19
2018-06-07T08:18:27.503Z,1008.18
2018-06-07T08:19:27.518Z,1008.19
2018-06-07T08:20:27.535Z,1008.21
2018-06-07T08:21:27.545Z,1008.23
2018-06-07T08:22:27.561Z,1008.24
2018-06-07T08:23:27.584Z,1008.32
2018-06-07T08:24:27.655Z,1008.28
2018-06-07T08:25:27.619Z,1008.27
2018-06-07T08:26:27.640Z,1008.26
2018-06-07T08:27:27.654Z,1008.24
2018-06-07T08:28:27.671Z,1008.28
2018-06-07T08:29:27.682Z,1008.24
2018-06-07T08:30:27.709Z,1008.23
2018-06-07T08:31:27.717Z,1008.23
2018-06-07T08:32:27.737Z,1008.26
2018-06-07T08:33:27.754Z,1008.21
2018-06-07T08:34:27.765Z,1008.25
2018-06-07T08:35:27.789Z,1008.33
2018-06-07T08:36:27.801Z,1008.26
2018-06-07T08:37:27.825Z,1008.27
2018-06-07T08:38:27.837Z,1008.28
2018-06-07T08:39:27.995Z,1008.24
2018-06-07T08:40:27.873Z,1008.22
2018-06-07T08:41:27.889Z,1008.21
2018-06-07T08:42:27.961Z,1008.18
2018-06-07T08:43:27.933Z,1008.20
2018-06-07T08:44:27.941Z,1008.14
2018-06-07T08:45:27.963Z,1008.14
2018-06-07T08:46:27.979Z,1008.18
2018-06-07T08:47:27.992Z,1008.15
2018-06-07T08:48:28.065Z,1008.15
2018-06-07T08:49:28.110Z,1008.17
2018-06-07T08:50:28.047Z,1008.21
2018-06-07T08:51:28.061Z,1008.27
2018-06-07T08:52:28.083Z,1008.26
2018-06-07T08:53:28.102Z,1008.34
2018-06-07T08:54:28.113Z,1008.33
2018-06-07T08:55:28.133Z,1008.33
2018-06-07T08:56:28.152Z,1008.31
2018-06-07T08:57:28.166Z,1008.34
2018-06-07T08:58:28.185Z,1008.39
2018-06-07T08:59:28.267Z,1008.41
2018-06-07T09:00:28.367Z,1008.41
2018-06-07T09:01:28.242Z,1008.41
2018-06-07T09:02:28.258Z,1008.43
2018-06-07T09:03:28.272Z,1008.45
2018-06-07T09:04:28.285Z,1008.44
2018-06-07T09:05:28.362Z,1008.41
2018-06-07T09:06:28.365Z,1008.38
2018-06-07T09:07:28.339Z,1008.32
2018-06-07T09:08:28.364Z,1008.38
2018-06-07T09:09:28.381Z,1008.37
2018-06-07T09:10:28.439Z,1008.40
2018-06-07T09:11:28.411Z,1008.45
2018-06-07T09:12:28.447Z,1008.40
2018-06-07T09:13:28.452Z,1008.43
2018-06-07T09:14:28.463Z,1008.46
2018-06-07T09:15:28.482Z,1008.42
2018-06-07T09:16:28.504Z,1008.46
2018-06-07T09:17:28.570Z,1008.51
2018-06-07T09:18:28.540Z,1008.42
2018-06-07T09:19:28.601Z,1008.50
2018-06-07T09:20:28.572Z,1008.42
2018-06-07T09:21:28.585Z,1008.36
2018-06-07T09:22:28.603Z,1008.40
2018-06-07T09:23:28.675Z,1008.34
2018-06-07T09:24:28.642Z,1008.34
2018-06-07T09:25:28.663Z,1008.33
2018-06-07T09:26:28.674Z,1008.27
2018-06-07T09:27:28.689Z,1008.29
2018-06-07T09:28:28.713Z,1008.38
2018-06-07T09:29:28.780Z,1008.40
2018-06-07T09:30:28.747Z,1008.32
2018-06-07T09:31:28.762Z,1008.29
2018-06-07T09:32:28.778Z,1008.31
2018-06-07T09:33:28.795Z,1008.33
2018-06-07T09:34:28.872Z,1008.38
2018-06-07T09:35:28.846Z,1008.32
2018-06-07T09:36:28.852Z,1008.33
2018-06-07T09:37:28.874Z,1008.31
2018-06-07T09:38:28.883Z,1008.32
2018-06-07T09:39:28.906Z,1008.32
2018-06-07T09:40:28.921Z,1008.37
2018-06-07T09:41:29.017Z,1008.34
2018-06-07T09:42:28.949Z,1008.37
2018-06-07T09:43:28.965Z,1008.36
2018-06-07T09:44:28.988Z,1008.37
2018-06-07T09:45:29.009Z,1008.34
2018-06-07T09:46:29.025Z,1008.35
2018-06-07T09:47:29.080Z,1008.36
2018-06-07T09:48:29.059Z,1008.37
2018-06-07T09:49:29.077Z,1008.35
2018-06-07T09:50:29.086Z,1008.37
2018-06-07T09:51:29.109Z,1008.41
2018-06-07T09:52:29.132Z,1008.47
2018-06-07T09:53:29.253Z,1008.41
2018-06-07T09:54:29.163Z,1008.43
2018-06-07T09:55:29.181Z,1008.45
2018-06-07T09:56:29.196Z,1008.42
2018-06-07T09:57:29.219Z,1008.44
2018-06-07T09:58:29.241Z,1008.41
2018-06-07T09:59:29.248Z,1008.47
2018-06-07T10:00:29.280Z,1008.49
2018-06-07T10:01:29.285Z,1008.53
2018-06-07T10:02:29.304Z,1008.53
2018-06-07T10:03:29.312Z,1008.45
2018-06-07T10:04:29.341Z,1008.49
2018-06-07T10:05:29.349Z,1008.45
2018-06-07T10:06:29.368Z,1008.42
2018-06-07T10:07:29.399Z,1008.50
2018-06-07T10:08:29.405Z,1008.49
2018-06-07T10:09:29.422Z,1008.48
2018-06-07T10:10:29.468Z,1008.52
2018-06-07T10:11:29.459Z,1008.47
2018-06-07T10:12:29.468Z,1008.46
2018-06-07T10:13:29.483Z,1008.47
2018-06-07T10:14:29.508Z,1008.49
2018-06-07T10:15:29.530Z,1008.54
2018-06-07T10:16:29.549Z,1008.49
2018-06-07T10:17:29.565Z,1008.45
2018-06-07T10:18:29.570Z,1008.46
2018-06-07T10:19:29.590Z,1008.42
2018-06-07T10:20:29.610Z,1008.48
2018-06-07T10:21:29.629Z,1008.55
2018-06-07T10:22:29.664Z,1008.59
2018-06-07T10:23:29.661Z,1008.59
2018-06-07T10:24:29.680Z,1008.53
2018-06-07T10:25:29.693Z,1008.43
2018-06-07T10:26:29.707Z,1008.43
2018-06-07T10:27:29.722Z,1008.40
2018-06-07T10:28:29.792Z,1008.49
2018-06-07T10:29:29.757Z,1008.50
2018-06-07T10:30:29.779Z,1008.50
2018-06-07T10:31:29.791Z,1008.52
2018-06-07T10:32:29.806Z,1008.50
2018-06-07T10:33:29.821Z,1008.49
2018-06-07T10:34:29.842Z,1008.52
2018-06-07T10:35:29.856Z,1008.53
2018-06-07T10:36:29.874Z,1008.56
2018-06-07T10:37:29.897Z,1008.51
2018-06-07T10:38:29.907Z,1008.49
2018-06-07T10:39:29.927Z,1008.49
2018-06-07T10:40:29.940Z,1008.46
2018-06-07T10:41:29.962Z,1008.53
2018-06-07T10:42:29.974Z,1008.49
2018-06-07T10:43:29.991Z,1008.44
2018-06-07T10:44:30.013Z,1008.53
2018-06-07T10:45:30.059Z,1008.43
2018-06-07T10:46:30.048Z,1008.44
2018-06-07T10:47:30.091Z,1008.46
2018-06-07T10:48:30.093Z,1008.53
2018-06-07T10:49:30.096Z,1008.46
2018-06-07T10:50:30.111Z,1008.44
2018-06-07T10:51:30.209Z,1008.46
2018-06-07T10:52:30.148Z,1008.41
2018-06-07T10:53:30.166Z,1008.42
2018-06-07T10:54:30.178Z,1008.39
2018-06-07T10:55:30.193Z,1008.45
2018-06-07T10:56:30.213Z,1008.46
2018-06-07T10:57:30.231Z,1008.41
2018-06-07T10:58:30.244Z,1008.52
2018-06-07T10:59:30.263Z,1008.50
2018-06-07T11:00:30.280Z,1008.49
2018-06-07T11:01:30.359Z,1008.47
2018-06-07T11:02:30.317Z,1008.48
2018-06-07T11:03:30.330Z,1008.46
2018-06-07T11:04:30.370Z,1008.50
2018-06-07T11:05:30.422Z,1008.46
2018-06-07T11:06:30.391Z,1008.47
2018-06-07T11:07:30.396Z,1008.49
2018-06-07T11:08:30.440Z,1008.47
2018-06-07T11:09:30.433Z,1008.48
2018-06-07T11:10:30.448Z,1008.48
2018-06-07T11:11:30.464Z,1008.49
2018-06-07T11:12:30.480Z,1008.46
2018-06-07T11:13:30.499Z,1008.44
2018-06-07T11:14:30.512Z,1008.40
2018-06-07T11:15:30.541Z,1008.43
2018-06-07T11:16:30.551Z,1008.42
2018-06-07T11:17:30.566Z,1008.38
2018-06-07T11:18:30.586Z,1008.48
2018-06-07T11:19:30.600Z,1008.42
2018-06-07T11:20:30.618Z,1008.44
2018-06-07T11:21:30.635Z,1008.51
2018-06-07T11:22:30.648Z,1008.49
2018-06-07T11:23:30.667Z,1008.51
2018-06-07T11:24:30.684Z,1008.49
2018-06-07T11:25:30.787Z,1008.47
2018-06-07T11:26:30.714Z,1008.51
2018-06-07T11:27:30.736Z,1008.47
2018-06-07T11:28:30.763Z,1008.46
2018-06-07T11:29:30.768Z,1008.43
2018-06-07T11:30:30.792Z,1008.40
2018-06-07T11:31:30.896Z,1008.35
2018-06-07T11:32:30.820Z,1008.40
2018-06-07T11:33:30.832Z,1008.34
2018-06-07T11:34:30.847Z,1008.30
2018-06-07T11:35:30.867Z,1008.27
2018-06-07T11:36:30.887Z,1008.25
2018-06-07T11:37:30.951Z,1008.27
2018-06-07T11:38:30.915Z,1008.25
2018-06-07T11:39:30.935Z,1008.32
2018-06-07T11:40:30.944Z,1008.25
2018-06-07T11:41:31.014Z,1008.25
2018-06-07T11:42:30.984Z,1008.23
2018-06-07T11:43:30.994Z,1008.27
2018-06-07T11:44:31.012Z,1008.28
2018-06-07T11:45:31.028Z,1008.30
2018-06-07T11:46:31.052Z,1008.27
2018-06-07T11:47:31.064Z,1008.29
2018-06-07T11:48:31.084Z,1008.29
2018-06-07T11:49:31.131Z,1008.27
2018-06-07T11:50:31.109Z,1008.23
2018-06-07T11:51:31.132Z,1008.20
2018-06-07T11:52:31.143Z,1008.19
2018-06-07T11:53:31.160Z,1008.18
2018-06-07T11:54:31.182Z,1008.22
2018-06-07T11:55:31.222Z,1008.22
2018-06-07T11:56:31.213Z,1008.20
2018-06-07T11:57:31.232Z,1008.20
2018-06-07T11:58:31.242Z,1008.16
2018-06-07T11:59:31.320Z,1008.15
2018-06-07T12:00:31.280Z,1008.12
2018-06-07T12:01:31.299Z,1008.06
2018-06-07T12:02:31.317Z,1008.06
2018-06-07T12:03:31.324Z,1008.04
2018-06-07T12:04:31.354Z,1008.06
2018-06-07T12:05:31.362Z,1008.04
2018-06-07T12:06:31.383Z,1008.04
2018-06-07T12:07:31.396Z,1008.06
2018-06-07T12:08:31.405Z,1008.02
2018-06-07T12:09:31.427Z,1007.97
2018-06-07T12:10:31.442Z,1007.99
2018-06-07T12:11:31.517Z,1007.99
2018-06-07T12:12:31.526Z,1007.97
2018-06-07T12:13:31.488Z,1007.98
2018-06-07T12:14:31.504Z,1007.90
2018-06-07T12:15:31.524Z,1007.95
2018-06-07T12:16:31.545Z,1007.95
2018-06-07T12:17:31.609Z,1007.89
2018-06-07T12:18:31.574Z,1007.88
2018-06-07T12:19:31.588Z,1007.83
2018-06-07T12:20:31.608Z,1007.87
2018-06-07T12:21:31.626Z,1007.81
2018-06-07T12:22:31.637Z,1007.85
2018-06-07T12:23:31.685Z,1007.83
2018-06-07T12:24:31.677Z,1007.84
2018-06-07T12:25:31.695Z,1007.83
2018-06-07T12:26:31.705Z,1007.88
2018-06-07T12:27:31.724Z,1007.95
2018-06-07T12:28:31.739Z,1007.87
2018-06-07T12:29:31.814Z,1007.92
2018-06-07T12:30:31.776Z,1007.87
2018-06-07T12:31:31.791Z,1007.88
2018-06-07T12:32:31.807Z,1007.90
2018-06-07T12:33:31.830Z,1007.92
2018-06-07T12:34:31.843Z,1007.94
2018-06-07T12:35:31.926Z,1007.86
2018-06-07T12:36:31.871Z,1007.90
2018-06-07T12:37:31.893Z,1007.90
2018-06-07T12:38:31.902Z,1007.90
2018-06-07T12:39:31.923Z,1007.88
2018-06-07T12:40:31.967Z,1007.86
2018-06-07T12:41:32.026Z,1007.87
2018-06-07T12:42:31.975Z,1007.82
2018-06-07T12:43:31.989Z,1007.82
2018-06-07T12:44:32.004Z,1007.82
2018-06-07T12:45:32.025Z,1007.80
2018-06-07T12:46:32.036Z,1007.77
2018-06-07T12:47:32.057Z,1007.81
2018-06-07T12:48:32.072Z,1007.75
2018-06-07T12:49:32.092Z,1007.74